Time;durP1;ratioP1;P1;durP2;ratioP2;P2;SDS_P1;SDS_P2;PMS_P1;PMS_P2;Temp;Humidity;BMP_temperature;BMP_pressure;BME280_temperature;BME280_humidity;BME280_pressure;Samples;Min_cycle;Max_cycle;Signal;HPM_P1;HPM_P2
2021/11/24 00:02:15;;;;;;;21.37;15.27;;;;;;;;;;4996714;28;20224;-75
2021/11/24 00:04:41;;;;;;;23.00;16.03;;;;;;;;;;4999688;28;20220;-75
2021/11/24 00:07:07;;;;;;;20.47;15.50;;;;;;;;;;5019063;28;20227;-75
2021/11/24 00:09:32;;;;;;;24.00;15.83;;;;;;;;;;5043699;28;20302;-76
2021/11/24 00:12:03;;;;;;;21.17;15.67;;;;;;;;;;5052193;28;20226;-74
2021/11/24 00:14:31;;;;;;;21.57;16.27;;;;;;;;;;5018824;28;20681;-75
2021/11/24 00:16:57;;;;;;;24.03;15.57;;;;;;;;;;5035043;28;20235;-74
2021/11/24 00:19:23;;;;;;;21.00;15.57;;;;;;;;;;5039292;28;20219;-76
2021/11/24 00:21:48;;;;;;;19.60;15.40;;;;;;;;;;5046245;28;20225;-75
2021/11/24 00:24:16;;;;;;;20.50;15.00;;;;;;;;;;5018525;28;20238;-76
2021/11/24 00:26:42;;;;;;;24.13;15.80;;;;;;;;;;5002922;28;20241;-75
2021/11/24 00:29:10;;;;;;;19.07;14.73;;;;;;;;;;5015953;28;20690;-75
2021/11/24 00:31:38;;;;;;;20.13;14.97;;;;;;;;;;5032760;28;20234;-75
2021/11/24 00:34:08;;;;;;;18.20;15.60;;;;;;;;;;5036130;28;20227;-76
2021/11/24 00:36:41;;;;;;;26.20;16.20;;;;;;;;;;5018707;28;20227;-77
2021/11/24 00:39:06;;;;;;;19.97;16.23;;;;;;;;;;5027204;28;20229;-75
2021/11/24 00:41:32;;;;;;;21.20;15.27;;;;;;;;;;5018913;28;20227;-75
2021/11/24 00:43:57;;;;;;;22.07;15.90;;;;;;;;;;5035392;28;20300;-74
2021/11/24 00:46:25;;;;;;;19.87;15.37;;;;;;;;;;5038164;28;20227;-74
2021/11/24 00:48:51;;;;;;;21.07;15.70;;;;;;;;;;5055686;28;20242;-74
2021/11/24 00:51:16;;;;;;;22.03;15.63;;;;;;;;;;5050184;28;20219;-74
2021/11/24 00:53:42;;;;;;;18.33;14.77;;;;;;;;;;5074507;28;20218;-75
2021/11/24 00:56:13;;;;;;;21.27;15.80;;;;;;;;;;5039910;28;20257;-74
2021/11/24 00:58:41;;;;;;;18.43;15.10;;;;;;;;;;5024716;28;20231;-75
2021/11/24 01:01:09;;;;;;;18.27;14.77;;;;;;;;;;5031975;28;20307;-74
2021/11/24 01:03:35;;;;;;;17.60;14.40;;;;;;;;;;5041670;28;20220;-75
2021/11/24 01:06:04;;;;;;;18.47;14.60;;;;;;;;;;5035223;28;20285;-75
2021/11/24 01:08:30;;;;;;;18.47;14.37;;;;;;;;;;5035840;28;20224;-74
2021/11/24 01:10:56;;;;;;;23.30;15.20;;;;;;;;;;5035876;28;20619;-76
2021/11/24 01:13:21;;;;;;;21.13;14.70;;;;;;;;;;5063676;28;20234;-75
2021/11/24 01:15:47;;;;;;;18.97;15.23;;;;;;;;;;5034434;28;20247;-75
2021/11/24 01:18:18;;;;;;;22.27;14.53;;;;;;;;;;5034548;28;20215;-75
2021/11/24 01:20:46;;;;;;;23.67;16.27;;;;;;;;;;5038459;28;20215;-75
2021/11/24 01:23:14;;;;;;;21.57;16.63;;;;;;;;;;5016256;28;20219;-76
2021/11/24 01:25:40;;;;;;;19.40;15.33;;;;;;;;;;5033837;28;20250;-76
2021/11/24 01:28:08;;;;;;;19.60;15.70;;;;;;;;;;5034770;28;20218;-76
2021/11/24 01:30:36;;;;;;;18.00;15.43;;;;;;;;;;5051240;28;20211;-75
2021/11/24 01:33:06;;;;;;;19.70;16.07;;;;;;;;;;5035186;28;20211;-74
2021/11/24 01:35:32;;;;;;;18.00;15.30;;;;;;;;;;5003477;28;20683;-75
2021/11/24 01:38:02;;;;;;;20.77;14.73;;;;;;;;;;5056497;28;20263;-75
2021/11/24 01:40:30;;;;;;;18.37;14.80;;;;;;;;;;5031088;28;20219;-75
2021/11/24 01:43:05;;;;;;;20.13;14.67;;;;;;;;;;5054997;28;20226;-75
2021/11/24 01:45:35;;;;;;;19.13;15.13;;;;;;;;;;5014807;28;20224;-73
2021/11/24 01:48:06;;;;;;;20.17;15.03;;;;;;;;;;5032940;28;20234;-74
2021/11/24 01:50:31;;;;;;;19.73;15.53;;;;;;;;;;5057760;28;20224;-75
2021/11/24 01:52:57;;;;;;;19.83;15.17;;;;;;;;;;5069776;28;20229;-75
2021/11/24 01:55:25;;;;;;;18.93;15.70;;;;;;;;;;4999231;28;20299;-75
2021/11/24 01:57:53;;;;;;;21.07;16.17;;;;;;;;;;4998442;28;20251;-75
2021/11/24 02:00:27;;;;;;;19.20;16.27;;;;;;;;;;5014892;28;20233;-74
2021/11/24 02:02:53;;;;;;;20.10;16.83;;;;;;;;;;5034097;28;20657;-75
2021/11/24 02:05:19;;;;;;;19.47;16.23;;;;;;;;;;5032524;28;20216;-75
2021/11/24 02:07:45;;;;;;;23.13;16.67;;;;;;;;;;5029659;28;20231;-74
2021/11/24 02:10:13;;;;;;;22.03;17.83;;;;;;;;;;5018912;28;20603;-75
2021/11/24 02:12:41;;;;;;;23.77;17.97;;;;;;;;;;5054105;28;20215;-73
2021/11/24 02:15:12;;;;;;;22.53;17.87;;;;;;;;;;5019533;28;20255;-74
2021/11/24 02:17:38;;;;;;;21.67;18.43;;;;;;;;;;4999525;28;20685;-76
2021/11/24 02:20:05;;;;;;;22.57;18.17;;;;;;;;;;5031773;28;20306;-75
2021/11/24 02:22:32;;;;;;;25.50;18.03;;;;;;;;;;5041478;28;20376;-75
2021/11/24 02:24:58;;;;;;;19.23;17.20;;;;;;;;;;5016561;28;20234;-74
2021/11/24 02:27:24;;;;;;;19.90;17.73;;;;;;;;;;5048984;28;20271;-75
2021/11/24 02:29:51;;;;;;;22.00;17.60;;;;;;;;;;5033573;28;20230;-74
2021/11/24 02:32:17;;;;;;;23.37;18.17;;;;;;;;;;5031519;28;20223;-75
2021/11/24 02:34:45;;;;;;;21.73;17.70;;;;;;;;;;5032569;28;20220;-74
2021/11/24 02:37:14;;;;;;;20.33;17.10;;;;;;;;;;5035323;28;20231;-75
2021/11/24 02:39:44;;;;;;;23.23;18.27;;;;;;;;;;5027990;28;20215;-75
2021/11/24 02:42:12;;;;;;;24.90;17.37;;;;;;;;;;5013153;28;20220;-75
2021/11/24 02:44:41;;;;;;;23.47;17.80;;;;;;;;;;5018484;28;20643;-75
2021/11/24 02:47:19;;;;;;;19.90;17.27;;;;;;;;;;5032978;28;20247;-75
2021/11/24 02:49:52;;;;;;;21.73;17.50;;;;;;;;;;5023611;28;20218;-76
2021/11/24 02:52:25;;;;;;;22.27;17.73;;;;;;;;;;5022004;28;20234;-74
2021/11/24 02:54:57;;;;;;;20.43;17.47;;;;;;;;;;5047094;28;20780;-75
2021/11/24 02:57:36;;;;;;;22.67;18.23;;;;;;;;;;5000399;28;20236;-75
2021/11/24 03:00:15;;;;;;;24.13;18.47;;;;;;;;;;5062929;28;20219;-75
2021/11/24 03:02:43;;;;;;;20.87;18.37;;;;;;;;;;5031354;28;20218;-76
2021/11/24 03:05:09;;;;;;;22.10;18.63;;;;;;;;;;5033305;28;20302;-76
2021/11/24 03:07:35;;;;;;;22.10;18.50;;;;;;;;;;5012784;28;20667;-76
2021/11/24 03:10:07;;;;;;;23.10;18.37;;;;;;;;;;5037577;28;20216;-75
2021/11/24 03:12:35;;;;;;;22.50;18.73;;;;;;;;;;5013245;28;20208;-76
2021/11/24 03:15:01;;;;;;;21.00;17.87;;;;;;;;;;5016967;28;20223;-75
2021/11/24 03:17:29;;;;;;;23.00;18.07;;;;;;;;;;5032079;28;20725;-76
2021/11/24 03:19:57;;;;;;;21.07;17.27;;;;;;;;;;5033171;28;20231;-76
2021/11/24 03:22:27;;;;;;;22.40;18.93;;;;;;;;;;5039681;28;20216;-75
2021/11/24 03:24:58;;;;;;;20.80;18.43;;;;;;;;;;5016893;28;20276;-76
2021/11/24 03:27:29;;;;;;;22.70;18.93;;;;;;;;;;5032393;28;20223;-74
2021/11/24 03:29:54;;;;;;;27.00;19.43;;;;;;;;;;5031929;28;20702;-75
2021/11/24 03:32:20;;;;;;;22.40;18.53;;;;;;;;;;5032018;28;20215;-76
2021/11/24 03:34:48;;;;;;;23.83;18.67;;;;;;;;;;5031843;28;20212;-75
2021/11/24 03:37:17;;;;;;;23.10;18.73;;;;;;;;;;5035915;28;20241;-76
2021/11/24 03:39:48;;;;;;;25.50;20.10;;;;;;;;;;5062410;28;20219;-75
2021/11/24 03:42:20;;;;;;;26.17;19.77;;;;;;;;;;5022263;28;20275;-76
2021/11/24 03:44:46;;;;;;;25.53;20.83;;;;;;;;;;5031035;28;20230;-75
2021/11/24 03:47:15;;;;;;;23.37;20.70;;;;;;;;;;5037169;28;20381;-76
2021/11/24 03:49:43;;;;;;;26.43;21.70;;;;;;;;;;5059426;28;20700;-76
2021/11/24 03:52:09;;;;;;;24.97;20.50;;;;;;;;;;5053447;28;20245;-75
2021/11/24 03:54:37;;;;;;;28.33;22.17;;;;;;;;;;5052350;28;20681;-76
2021/11/24 03:57:05;;;;;;;26.90;21.37;;;;;;;;;;5035825;28;20242;-76
2021/11/24 03:59:33;;;;;;;28.03;22.13;;;;;;;;;;5036675;28;20215;-75
2021/11/24 04:01:59;;;;;;;26.37;21.97;;;;;;;;;;5032477;28;20223;-74
2021/11/24 04:04:24;;;;;;;28.33;22.23;;;;;;;;;;5032222;28;20215;-74
2021/11/24 04:06:50;;;;;;;30.13;23.17;;;;;;;;;;5033835;28;20821;-75
2021/11/24 04:09:18;;;;;;;26.27;21.97;;;;;;;;;;5054665;28;20688;-75
2021/11/24 04:11:46;;;;;;;30.77;23.57;;;;;;;;;;5044646;28;20211;-76
2021/11/24 04:14:14;;;;;;;31.23;24.17;;;;;;;;;;5001879;28;20215;-76
2021/11/24 04:16:40;;;;;;;30.60;23.63;;;;;;;;;;5053247;28;20231;-75
2021/11/24 04:19:10;;;;;;;29.60;23.70;;;;;;;;;;5021011;28;20700;-76
2021/11/24 04:21:35;;;;;;;29.17;22.17;;;;;;;;;;5040942;28;20227;-75
2021/11/24 04:24:03;;;;;;;25.27;21.97;;;;;;;;;;5047585;28;20222;-76
2021/11/24 04:26:31;;;;;;;26.67;21.53;;;;;;;;;;5051610;28;20219;-75
2021/11/24 04:28:57;;;;;;;26.70;21.33;;;;;;;;;;5002856;28;20680;-76
2021/11/24 04:31:25;;;;;;;28.77;22.37;;;;;;;;;;5051532;28;20239;-76
2021/11/24 04:33:53;;;;;;;28.20;22.70;;;;;;;;;;5018754;28;20215;-76
2021/11/24 04:36:19;;;;;;;27.17;22.13;;;;;;;;;;5016423;28;20289;-75
2021/11/24 04:38:49;;;;;;;25.17;21.17;;;;;;;;;;5045292;28;20719;-76
2021/11/24 04:41:15;;;;;;;23.90;21.30;;;;;;;;;;5034686;28;20235;-76
2021/11/24 04:43:45;;;;;;;24.40;21.67;;;;;;;;;;5041159;28;20248;-76
2021/11/24 04:46:15;;;;;;;23.60;19.87;;;;;;;;;;5044672;28;20695;-75
2021/11/24 04:48:41;;;;;;;23.10;20.50;;;;;;;;;;5002510;28;20238;-76
2021/11/24 04:51:12;;;;;;;24.40;21.50;;;;;;;;;;5044481;28;20233;-75
2021/11/24 04:53:40;;;;;;;26.83;22.23;;;;;;;;;;5020125;28;20223;-76
2021/11/24 04:56:10;;;;;;;23.60;21.03;;;;;;;;;;5017421;28;20254;-76
2021/11/24 04:58:50;;;;;;;24.77;21.13;;;;;;;;;;5015683;28;20215;-76
2021/11/24 05:01:18;;;;;;;29.97;21.50;;;;;;;;;;5047573;28;20224;-75
2021/11/24 05:03:46;;;;;;;23.57;20.73;;;;;;;;;;5019069;28;20302;-75
2021/11/24 05:06:12;;;;;;;22.83;20.40;;;;;;;;;;5017462;28;20609;-76
2021/11/24 05:08:41;;;;;;;23.73;20.33;;;;;;;;;;5040762;28;20680;-75
2021/11/24 05:11:07;;;;;;;23.07;19.60;;;;;;;;;;5037446;28;20259;-75
2021/11/24 05:13:38;;;;;;;21.47;18.87;;;;;;;;;;5053045;28;20215;-76
2021/11/24 05:16:08;;;;;;;23.93;19.43;;;;;;;;;;5044071;28;20726;-76
2021/11/24 05:18:40;;;;;;;23.27;18.17;;;;;;;;;;5035306;28;21202;-75
2021/11/24 05:21:22;;;;;;;20.77;18.60;;;;;;;;;;5044491;28;20277;-76
2021/11/24 05:23:47;;;;;;;19.53;17.53;;;;;;;;;;5018890;28;20589;-75
2021/11/24 05:26:16;;;;;;;21.20;18.67;;;;;;;;;;5038765;28;20215;-75
2021/11/24 05:28:41;;;;;;;20.60;18.13;;;;;;;;;;5034439;28;20227;-75
2021/11/24 05:31:09;;;;;;;19.30;17.23;;;;;;;;;;5033802;28;20229;-75
2021/11/24 05:33:36;;;;;;;21.20;18.77;;;;;;;;;;5034231;28;20219;-75
2021/11/24 05:36:05;;;;;;;20.07;17.77;;;;;;;;;;5017400;28;20234;-75
2021/11/24 05:38:34;;;;;;;22.53;18.00;;;;;;;;;;5032845;28;20302;-75
2021/11/24 05:41:02;;;;;;;18.53;15.90;;;;;;;;;;5052814;28;20223;-75
2021/11/24 05:43:29;;;;;;;20.87;16.47;;;;;;;;;;5032672;28;20220;-75
2021/11/24 05:48:43;;;;;;;16.73;14.80;;;;;;;;;;5049330;28;20218;-74
2021/11/24 05:51:09;;;;;;;17.00;14.37;;;;;;;;;;5064767;28;20220;-75
2021/11/24 05:53:35;;;;;;;18.03;15.83;;;;;;;;;;5035774;28;20215;-74
2021/11/24 05:56:03;;;;;;;15.67;13.23;;;;;;;;;;5065210;28;20229;-74
2021/11/24 05:58:34;;;;;;;13.90;12.40;;;;;;;;;;5054933;28;20248;-73
2021/11/24 06:01:02;;;;;;;16.70;14.07;;;;;;;;;;5069325;28;20226;-75
2021/11/24 06:03:32;;;;;;;15.90;12.73;;;;;;;;;;5049242;28;20222;-74
2021/11/24 06:05:58;;;;;;;16.07;13.70;;;;;;;;;;5025678;28;20761;-73
2021/11/24 06:08:26;;;;;;;16.07;14.20;;;;;;;;;;5050963;28;20214;-73
2021/11/24 06:10:52;;;;;;;20.00;15.17;;;;;;;;;;5036427;28;20709;-75
2021/11/24 06:13:17;;;;;;;18.73;15.37;;;;;;;;;;5035768;28;20210;-75
2021/11/24 06:15:48;;;;;;;21.70;15.73;;;;;;;;;;5020146;28;20227;-74
2021/11/24 06:18:13;;;;;;;19.70;16.07;;;;;;;;;;5053596;28;20306;-74
2021/11/24 06:20:39;;;;;;;17.30;15.10;;;;;;;;;;5052911;28;20245;-73
2021/11/24 06:23:06;;;;;;;18.80;15.87;;;;;;;;;;5048604;28;20594;-74
2021/11/24 06:25:32;;;;;;;20.97;16.17;;;;;;;;;;5048873;28;20227;-74
2021/11/24 06:27:58;;;;;;;20.33;15.93;;;;;;;;;;5035845;28;20308;-74
2021/11/24 06:30:24;;;;;;;21.73;16.40;;;;;;;;;;5052825;28;20810;-74
2021/11/24 06:32:53;;;;;;;21.07;16.57;;;;;;;;;;5053561;28;20241;-75
2021/11/24 06:35:20;;;;;;;19.00;16.07;;;;;;;;;;5034521;28;20749;-74
2021/11/24 06:37:46;;;;;;;19.87;16.03;;;;;;;;;;5037146;28;20216;-77
2021/11/24 06:40:35;;;;;;;19.50;17.20;;;;;;;;;;5051363;28;20242;-76
2021/11/24 06:43:04;;;;;;;19.80;15.50;;;;;;;;;;5023013;28;20222;-76
2021/11/24 06:45:32;;;;;;;20.73;17.27;;;;;;;;;;5069217;28;20249;-76
2021/11/24 06:48:01;;;;;;;23.50;17.63;;;;;;;;;;5046404;28;20225;-74
2021/11/24 06:50:29;;;;;;;23.47;17.23;;;;;;;;;;5069540;28;20215;-76
2021/11/24 06:52:57;;;;;;;25.37;18.30;;;;;;;;;;5035773;28;20225;-75
2021/11/24 06:55:27;;;;;;;23.07;17.93;;;;;;;;;;5069606;28;20253;-76
2021/11/24 06:57:53;;;;;;;21.60;18.00;;;;;;;;;;5072086;28;20218;-75
2021/11/24 07:00:26;;;;;;;25.77;19.13;;;;;;;;;;5069509;28;20222;-73
2021/11/24 07:02:54;;;;;;;27.40;18.80;;;;;;;;;;5053256;28;20222;-74
2021/11/24 07:05:21;;;;;;;23.77;18.47;;;;;;;;;;5027081;28;20227;-74
2021/11/24 07:07:47;;;;;;;24.90;18.07;;;;;;;;;;5059997;28;20226;-75
2021/11/24 07:10:15;;;;;;;23.97;17.90;;;;;;;;;;5068144;28;20227;-75
2021/11/24 07:12:44;;;;;;;24.30;17.83;;;;;;;;;;5066292;28;20261;-77
2021/11/24 07:15:12;;;;;;;23.07;17.43;;;;;;;;;;5028768;28;20246;-75
2021/11/24 07:17:38;;;;;;;23.23;17.50;;;;;;;;;;5048664;28;20211;-76
2021/11/24 07:20:04;;;;;;;22.70;17.87;;;;;;;;;;5040549;28;20234;-75
2021/11/24 07:22:32;;;;;;;25.00;17.97;;;;;;;;;;5069333;28;20368;-75
2021/11/24 07:25:00;;;;;;;23.27;16.70;;;;;;;;;;5069006;28;20219;-76
2021/11/24 07:27:29;;;;;;;23.97;17.73;;;;;;;;;;5053090;28;20218;-74
2021/11/24 07:29:57;;;;;;;24.50;17.13;;;;;;;;;;5049307;28;20591;-75
2021/11/24 07:32:29;;;;;;;24.23;17.50;;;;;;;;;;5052266;28;20223;-76
2021/11/24 07:35:04;;;;;;;24.50;16.87;;;;;;;;;;5072889;28;20714;-76
2021/11/24 07:37:31;;;;;;;24.67;17.73;;;;;;;;;;5080789;28;20638;-77
2021/11/24 07:39:57;;;;;;;26.23;17.90;;;;;;;;;;5050062;28;20272;-77
2021/11/24 07:42:23;;;;;;;25.50;19.33;;;;;;;;;;5068123;28;20621;-75
2021/11/24 07:44:49;;;;;;;27.23;20.00;;;;;;;;;;5019973;28;20599;-76
2021/11/24 07:47:18;;;;;;;27.03;20.20;;;;;;;;;;5038104;28;20753;-76
2021/11/24 07:49:43;;;;;;;25.73;20.23;;;;;;;;;;5039159;28;20222;-76
2021/11/24 07:52:09;;;;;;;29.60;21.27;;;;;;;;;;5068177;28;20237;-75
2021/11/24 07:54:37;;;;;;;29.67;21.70;;;;;;;;;;5068973;28;20396;-75
2021/11/24 07:57:05;;;;;;;28.43;21.93;;;;;;;;;;5068752;28;20277;-75
2021/11/24 07:59:31;;;;;;;30.83;20.23;;;;;;;;;;5052791;28;20223;-76
2021/11/24 08:01:56;;;;;;;31.50;21.73;;;;;;;;;;5069329;28;20230;-76
2021/11/24 08:04:24;;;;;;;29.70;21.93;;;;;;;;;;5017752;28;20231;-75
2021/11/24 08:06:50;;;;;;;30.43;21.87;;;;;;;;;;5023762;28;20265;-76
2021/11/24 08:09:16;;;;;;;29.93;22.37;;;;;;;;;;5051082;28;20210;-76
2021/11/24 08:11:41;;;;;;;37.47;24.10;;;;;;;;;;5069008;28;20219;-75
2021/11/24 08:14:11;;;;;;;33.87;23.00;;;;;;;;;;5068231;28;20226;-75
2021/11/24 08:16:39;;;;;;;32.33;22.83;;;;;;;;;;5051952;28;20223;-76
2021/11/24 08:19:05;;;;;;;33.47;22.57;;;;;;;;;;5033786;28;20662;-76
2021/11/24 08:21:35;;;;;;;32.57;23.10;;;;;;;;;;5052085;28;20219;-75
2021/11/24 08:24:03;;;;;;;35.43;23.07;;;;;;;;;;5046741;28;20227;-75
2021/11/24 08:26:28;;;;;;;34.17;21.73;;;;;;;;;;5055227;28;20755;-74
2021/11/24 08:28:56;;;;;;;33.67;21.73;;;;;;;;;;5049944;28;20314;-75
2021/11/24 08:31:24;;;;;;;29.20;20.27;;;;;;;;;;5034852;28;20226;-74
2021/11/24 08:33:50;;;;;;;32.40;21.17;;;;;;;;;;5050672;28;20219;-74
2021/11/24 08:36:16;;;;;;;30.63;20.30;;;;;;;;;;5051425;28;20234;-74
2021/11/24 08:38:44;;;;;;;27.97;19.13;;;;;;;;;;5051142;28;20210;-74
2021/11/24 08:41:13;;;;;;;27.80;20.57;;;;;;;;;;5051218;28;20779;-74
2021/11/24 08:43:41;;;;;;;28.00;19.17;;;;;;;;;;5073010;28;20750;-73
2021/11/24 08:46:09;;;;;;;27.60;19.20;;;;;;;;;;5067960;28;20333;-75
2021/11/24 08:48:35;;;;;;;27.03;18.23;;;;;;;;;;5053013;28;20219;-74
2021/11/24 08:51:04;;;;;;;29.23;18.97;;;;;;;;;;5069291;28;20222;-74
2021/11/24 08:53:30;;;;;;;23.10;17.20;;;;;;;;;;5057424;28;20219;-74
2021/11/24 08:55:58;;;;;;;25.10;18.17;;;;;;;;;;5021250;28;20220;-75
2021/11/24 08:58:29;;;;;;;26.57;18.43;;;;;;;;;;5070723;28;20584;-75
2021/11/24 09:00:54;;;;;;;26.13;17.67;;;;;;;;;;5054969;28;20234;-76
2021/11/24 09:03:22;;;;;;;24.17;16.13;;;;;;;;;;5043389;28;20852;-75
2021/11/24 09:05:48;;;;;;;23.40;16.80;;;;;;;;;;5050585;28;20219;-75
2021/11/24 09:08:14;;;;;;;22.23;16.17;;;;;;;;;;5076564;28;20214;-75
2021/11/24 09:10:40;;;;;;;20.37;15.43;;;;;;;;;;5068328;28;20225;-76
2021/11/24 09:13:06;;;;;;;22.23;15.67;;;;;;;;;;5036906;28;20304;-75
2021/11/24 09:15:31;;;;;;;20.90;15.43;;;;;;;;;;5038170;28;20230;-77
2021/11/24 09:17:57;;;;;;;19.87;15.23;;;;;;;;;;5051340;28;20218;-74
2021/11/24 09:20:23;;;;;;;22.20;15.73;;;;;;;;;;5053587;28;20225;-75
2021/11/24 09:22:51;;;;;;;19.53;15.40;;;;;;;;;;5055032;28;20683;-74
2021/11/24 09:25:20;;;;;;;20.80;17.23;;;;;;;;;;5017822;28;20306;-75
2021/11/24 09:28:06;;;;;;;19.13;15.00;;;;;;;;;;5034335;28;20214;-77
2021/11/24 09:30:32;;;;;;;16.93;13.40;;;;;;;;;;5049130;28;20854;-74
2021/11/24 09:32:58;;;;;;;21.00;18.43;;;;;;;;;;5031220;28;20215;-74
2021/11/24 09:35:23;;;;;;;17.67;14.63;;;;;;;;;;5044875;28;20242;-75
2021/11/24 09:37:49;;;;;;;19.20;14.53;;;;;;;;;;5035622;28;20220;-75
2021/11/24 09:40:15;;;;;;;19.23;13.73;;;;;;;;;;5051702;28;20231;-76
2021/11/24 09:42:43;;;;;;;19.43;13.97;;;;;;;;;;5068288;28;20225;-76
2021/11/24 09:45:13;;;;;;;17.90;13.87;;;;;;;;;;5054168;28;20228;-74
2021/11/24 09:47:47;;;;;;;19.47;13.73;;;;;;;;;;5053110;28;20302;-74
2021/11/24 09:50:18;;;;;;;17.70;13.17;;;;;;;;;;5053716;28;20218;-75
2021/11/24 09:52:46;;;;;;;17.03;12.93;;;;;;;;;;5070565;28;20241;-74
2021/11/24 09:55:14;;;;;;;15.13;12.03;;;;;;;;;;5053656;28;20304;-74
2021/11/24 09:57:44;;;;;;;16.77;12.23;;;;;;;;;;5054368;28;20703;-75
2021/11/24 10:00:15;;;;;;;15.10;11.83;;;;;;;;;;5053235;28;20306;-75
2021/11/24 10:02:42;;;;;;;13.97;12.17;;;;;;;;;;5054420;28;20226;-75
2021/11/24 10:05:13;;;;;;;14.33;12.37;;;;;;;;;;5022984;28;20222;-75
2021/11/24 10:07:42;;;;;;;16.17;13.17;;;;;;;;;;5047903;28;20693;-75
2021/11/24 10:10:12;;;;;;;14.47;12.47;;;;;;;;;;5052487;28;20230;-75
2021/11/24 10:12:40;;;;;;;16.00;13.03;;;;;;;;;;5052313;28;20218;-75
2021/11/24 10:15:09;;;;;;;15.23;12.43;;;;;;;;;;5065797;28;20733;-74
2021/11/24 10:17:37;;;;;;;16.10;11.93;;;;;;;;;;5053425;28;20227;-75
2021/11/24 10:20:08;;;;;;;15.30;12.17;;;;;;;;;;5034663;28;20305;-74
2021/11/24 10:22:37;;;;;;;15.67;11.73;;;;;;;;;;5036779;28;20218;-75
2021/11/24 10:25:05;;;;;;;13.37;10.80;;;;;;;;;;5037746;28;20743;-74
2021/11/24 10:27:43;;;;;;;12.93;11.10;;;;;;;;;;5053652;28;20223;-75
2021/11/24 10:30:12;;;;;;;13.70;10.47;;;;;;;;;;5051087;28;20230;-75
2021/11/24 10:32:38;;;;;;;13.83;11.67;;;;;;;;;;5053453;28;20301;-74
2021/11/24 10:35:07;;;;;;;12.87;10.57;;;;;;;;;;5053071;28;20245;-74
2021/11/24 10:37:40;;;;;;;13.93;10.67;;;;;;;;;;5064317;28;20264;-73
2021/11/24 10:40:09;;;;;;;13.63;10.77;;;;;;;;;;5068831;28;20231;-73
2021/11/24 10:42:36;;;;;;;18.93;15.00;;;;;;;;;;5053452;28;20215;-74
2021/11/24 10:45:17;;;;;;;11.60;9.60;;;;;;;;;;5051849;28;20249;-74
2021/11/24 10:47:54;;;;;;;12.07;10.33;;;;;;;;;;5061217;28;20215;-75
2021/11/24 10:50:27;;;;;;;13.60;11.40;;;;;;;;;;5051612;28;20234;-74
2021/11/24 10:52:56;;;;;;;12.90;10.40;;;;;;;;;;5033874;28;20224;-74
2021/11/24 10:55:27;;;;;;;12.00;10.67;;;;;;;;;;5045390;28;20299;-74
2021/11/24 10:58:06;;;;;;;11.10;9.20;;;;;;;;;;5018656;28;20215;-74
2021/11/24 11:00:41;;;;;;;15.47;12.53;;;;;;;;;;5032596;28;20218;-74
2021/11/24 11:03:10;;;;;;;12.10;10.23;;;;;;;;;;5033191;28;20246;-75
2021/11/24 11:05:36;;;;;;;11.77;9.00;;;;;;;;;;5016463;28;20222;-74
2021/11/24 11:08:08;;;;;;;8.33;7.53;;;;;;;;;;5027110;28;20611;-74
2021/11/24 11:10:38;;;;;;;10.93;8.33;;;;;;;;;;5043588;28;20774;-75
2021/11/24 11:13:11;;;;;;;11.17;8.30;;;;;;;;;;5045876;28;20311;-75
2021/11/24 11:15:38;;;;;;;9.13;7.50;;;;;;;;;;5042756;28;20241;-74
2021/11/24 11:18:11;;;;;;;9.30;8.40;;;;;;;;;;5031614;28;20216;-74
2021/11/24 11:20:39;;;;;;;8.73;7.77;;;;;;;;;;5049211;28;20711;-75
2021/11/24 11:23:09;;;;;;;10.87;6.90;;;;;;;;;;5050240;28;20246;-74
2021/11/24 11:25:39;;;;;;;6.47;5.77;;;;;;;;;;5046645;28;20277;-75
2021/11/24 11:28:05;;;;;;;7.10;6.40;;;;;;;;;;5032018;28;20203;-75
2021/11/24 11:30:33;;;;;;;7.33;6.10;;;;;;;;;;5050143;28;20737;-73
2021/11/24 11:32:59;;;;;;;8.40;6.87;;;;;;;;;;5016667;28;20338;-73
2021/11/24 11:35:24;;;;;;;8.80;6.70;;;;;;;;;;5031448;28;20792;-73
2021/11/24 11:37:51;;;;;;;6.67;5.87;;;;;;;;;;5024801;28;20609;-74
2021/11/24 11:40:16;;;;;;;7.73;6.40;;;;;;;;;;5032381;28;20251;-74
2021/11/24 11:42:45;;;;;;;7.43;5.50;;;;;;;;;;5016232;28;20700;-73
2021/11/24 11:45:14;;;;;;;7.60;6.47;;;;;;;;;;5030952;28;20224;-74
2021/11/24 11:47:41;;;;;;;6.23;5.63;;;;;;;;;;5038901;28;20649;-75
2021/11/24 11:50:09;;;;;;;7.57;5.30;;;;;;;;;;5057240;28;20276;-75
2021/11/24 11:52:34;;;;;;;6.00;5.20;;;;;;;;;;5049280;28;20728;-75
2021/11/24 11:55:35;;;;;;;5.60;4.83;;;;;;;;;;5048062;28;20249;-75
2021/11/24 11:58:25;;;;;;;6.60;5.07;;;;;;;;;;5022666;28;20664;-71
2021/11/24 12:01:06;;;;;;;5.73;4.73;;;;;;;;;;5035259;28;20693;-74
2021/11/24 12:03:54;;;;;;;5.57;5.00;;;;;;;;;;5020377;28;20306;-74
2021/11/24 12:06:23;;;;;;;4.87;4.47;;;;;;;;;;5051893;28;20227;-73
2021/11/24 12:09:07;;;;;;;4.93;4.23;;;;;;;;;;5052977;28;20594;-74
2021/11/24 12:14:45;;;;;;;6.70;3.90;;;;;;;;;;5052142;28;20212;-74
2021/11/24 12:20:19;;;;;;;5.40;4.10;;;;;;;;;;5052537;28;20447;-74
2021/11/24 12:22:51;;;;;;;6.37;4.30;;;;;;;;;;5052469;28;20824;-74
2021/11/24 12:25:19;;;;;;;5.13;4.47;;;;;;;;;;5061091;28;20223;-75
2021/11/24 12:27:54;;;;;;;5.43;4.50;;;;;;;;;;5055807;28;20218;-73
2021/11/24 12:33:23;;;;;;;4.50;3.90;;;;;;;;;;5063981;28;20731;-75
2021/11/24 12:36:11;;;;;;;6.13;4.50;;;;;;;;;;5055283;28;20246;-73
2021/11/24 12:38:45;;;;;;;5.13;3.60;;;;;;;;;;5068677;28;20294;-73
2021/11/24 12:41:12;;;;;;;4.23;3.83;;;;;;;;;;5071375;28;20225;-75
2021/11/24 12:43:45;;;;;;;7.33;4.23;;;;;;;;;;5061364;28;20234;-74
2021/11/24 12:46:12;;;;;;;3.37;2.80;;;;;;;;;;5047418;28;20223;-74
2021/11/24 12:49:05;;;;;;;3.70;2.60;;;;;;;;;;5054068;28;20621;-73
2021/11/24 12:51:30;;;;;;;6.57;4.07;;;;;;;;;;5049044;28;20221;-73
2021/11/24 12:53:58;;;;;;;9.23;6.20;;;;;;;;;;5069016;28;20226;-74
2021/11/24 12:56:28;;;;;;;2.73;2.20;;;;;;;;;;5070348;28;20288;-74
2021/11/24 12:59:01;;;;;;;2.43;2.00;;;;;;;;;;5036790;28;20298;-75
2021/11/24 13:01:31;;;;;;;2.23;2.03;;;;;;;;;;5037341;28;20667;-73
2021/11/24 13:04:20;;;;;;;1.50;1.40;;;;;;;;;;5054091;28;20688;-74
2021/11/24 13:06:55;;;;;;;1.30;1.20;;;;;;;;;;5049460;28;20226;-74
2021/11/24 13:09:25;;;;;;;0.90;0.90;;;;;;;;;;5072398;28;20218;-74
2021/11/24 13:11:56;;;;;;;1.90;1.20;;;;;;;;;;5071280;28;20234;-73
2021/11/24 13:14:29;;;;;;;1.13;1.00;;;;;;;;;;5053833;28;20222;-72
2021/11/24 13:17:03;;;;;;;1.03;0.93;;;;;;;;;;5038151;28;20245;-74
2021/11/24 13:19:38;;;;;;;0.97;0.97;;;;;;;;;;5037419;28;20229;-74
2021/11/24 13:22:05;;;;;;;2.23;1.30;;;;;;;;;;5028591;28;20230;-74
2021/11/24 13:24:31;;;;;;;1.73;1.10;;;;;;;;;;5025741;28;20227;-74
2021/11/24 13:27:00;;;;;;;1.17;1.07;;;;;;;;;;5014902;28;20311;-74
2021/11/24 13:29:28;;;;;;;1.43;1.27;;;;;;;;;;5037515;28;20246;-75
2021/11/24 13:32:10;;;;;;;4.50;2.70;;;;;;;;;;5054610;28;20215;-74
2021/11/24 13:34:36;;;;;;;3.73;2.00;;;;;;;;;;5066655;28;20230;-74
2021/11/24 13:37:04;;;;;;;1.43;1.33;;;;;;;;;;5052311;28;20648;-75
2021/11/24 13:39:30;;;;;;;1.00;0.90;;;;;;;;;;5068564;28;20864;-76
2021/11/24 13:42:09;;;;;;;1.23;1.13;;;;;;;;;;5052681;28;20318;-76
2021/11/24 13:44:54;;;;;;;0.70;0.70;;;;;;;;;;5070033;28;20215;-76
2021/11/24 13:47:23;;;;;;;0.80;0.80;;;;;;;;;;5051555;28;20717;-74
2021/11/24 13:49:49;;;;;;;0.90;0.90;;;;;;;;;;5037112;28;20294;-74
2021/11/24 13:52:18;;;;;;;1.53;1.43;;;;;;;;;;5054066;28;20227;-76
2021/11/24 13:54:55;;;;;;;1.70;1.60;;;;;;;;;;5072095;28;20268;-73
2021/11/24 13:57:26;;;;;;;2.17;1.23;;;;;;;;;;5062954;28;20305;-74
2021/11/24 14:00:10;;;;;;;1.10;0.90;;;;;;;;;;5071183;28;20238;-74
2021/11/24 14:02:42;;;;;;;1.23;1.00;;;;;;;;;;5052653;28;20249;-75
2021/11/24 14:05:10;;;;;;;1.50;1.37;;;;;;;;;;5034042;28;20227;-76
2021/11/24 14:07:41;;;;;;;0.80;0.80;;;;;;;;;;5068988;28;20704;-75
2021/11/24 14:10:28;;;;;;;4.83;1.70;;;;;;;;;;5070500;28;20623;-76
2021/11/24 14:12:57;;;;;;;1.20;1.10;;;;;;;;;;5050727;28;20349;-74
2021/11/24 14:15:28;;;;;;;2.23;0.80;;;;;;;;;;5050694;28;20351;-74
2021/11/24 14:17:55;;;;;;;0.97;0.70;;;;;;;;;;5044974;28;20226;-76
2021/11/24 14:20:20;;;;;;;1.43;1.10;;;;;;;;;;5070226;28;20223;-75
2021/11/24 14:22:46;;;;;;;1.17;1.07;;;;;;;;;;5071368;28;20229;-74
2021/11/24 14:25:15;;;;;;;1.20;1.13;;;;;;;;;;5069495;28;20254;-74
2021/11/24 14:27:41;;;;;;;1.40;1.30;;;;;;;;;;5069991;28;20230;-74
2021/11/24 14:30:09;;;;;;;1.23;1.10;;;;;;;;;;5053393;28;20223;-75
2021/11/24 14:32:39;;;;;;;1.70;1.00;;;;;;;;;;5070352;28;20305;-75
2021/11/24 14:35:10;;;;;;;1.50;1.10;;;;;;;;;;5053392;28;20241;-75
2021/11/24 14:37:36;;;;;;;0.67;0.67;;;;;;;;;;5053389;28;20234;-75
2021/11/24 14:40:03;;;;;;;0.70;0.70;;;;;;;;;;5025269;28;20800;-76
2021/11/24 14:42:31;;;;;;;1.10;1.00;;;;;;;;;;5044618;28;20215;-75
2021/11/24 14:45:00;;;;;;;1.00;0.90;;;;;;;;;;5016469;28;20224;-75
2021/11/24 14:47:26;;;;;;;1.40;1.30;;;;;;;;;;5037834;28;20279;-74